Time;durP1;ratioP1;P1;durP2;ratioP2;P2;SDS_P1;SDS_P2;PMS_P1;PMS_P2;Temp;Humidity;BMP_temperature;BMP_pressure;BME280_temperature;BME280_humidity;BME280_pressure;Samples;Min_cycle;Max_cycle;Signal;HPM_P1;HPM_P2
2021/11/02 00:02:01;;;;;;;4.03;1.98;;;;;;;;;;4990982;28;20065;-84
2021/11/02 00:04:28;;;;;;;7.10;2.50;;;;;;;;;;4995921;28;20042;-84
2021/11/02 00:06:53;;;;;;;6.93;2.78;;;;;;;;;;4988922;28;20040;-84
2021/11/02 00:09:22;;;;;;;3.88;2.40;;;;;;;;;;4996236;28;20030;-85
2021/11/02 00:11:48;;;;;;;4.15;2.83;;;;;;;;;;4962096;28;20039;-84
2021/11/02 00:14:15;;;;;;;5.90;3.00;;;;;;;;;;4993664;28;20475;-85
2021/11/02 00:16:43;;;;;;;6.28;2.60;;;;;;;;;;4993377;28;20058;-85
2021/11/02 00:19:09;;;;;;;6.03;3.13;;;;;;;;;;4989467;28;20097;-84
2021/11/02 00:21:41;;;;;;;4.72;2.63;;;;;;;;;;4994619;28;20019;-85
2021/11/02 00:24:16;;;;;;;5.43;3.00;;;;;;;;;;4991457;28;20113;-85
2021/11/02 00:26:43;;;;;;;5.18;2.17;;;;;;;;;;4996033;28;20039;-85
2021/11/02 00:29:09;;;;;;;7.35;2.60;;;;;;;;;;4996303;28;20053;-85
2021/11/02 00:31:35;;;;;;;3.50;2.17;;;;;;;;;;4995335;28;20041;-85
2021/11/02 00:34:01;;;;;;;6.25;3.20;;;;;;;;;;4995197;28;20535;-85
2021/11/02 00:36:29;;;;;;;4.30;2.13;;;;;;;;;;4991368;28;20047;-85
2021/11/02 00:38:55;;;;;;;5.38;2.20;;;;;;;;;;4980525;28;20026;-85
2021/11/02 00:41:21;;;;;;;6.10;2.83;;;;;;;;;;4997175;28;20037;-85
2021/11/02 00:43:48;;;;;;;4.45;2.20;;;;;;;;;;4995596;28;20442;-85
2021/11/02 00:46:14;;;;;;;6.13;2.58;;;;;;;;;;4993126;28;20030;-85
2021/11/02 00:48:40;;;;;;;5.20;2.60;;;;;;;;;;4995736;28;20068;-85
2021/11/02 00:51:06;;;;;;;5.05;2.42;;;;;;;;;;4978651;28;20034;-85
2021/11/02 00:53:32;;;;;;;4.07;2.38;;;;;;;;;;4980679;28;20026;-84
2021/11/02 00:55:58;;;;;;;4.53;2.33;;;;;;;;;;4980636;28;20113;-84
2021/11/02 00:58:26;;;;;;;6.13;2.40;;;;;;;;;;4980606;28;20126;-85
2021/11/02 01:00:53;;;;;;;4.00;2.38;;;;;;;;;;4990256;28;20026;-85
2021/11/02 01:03:19;;;;;;;4.85;2.35;;;;;;;;;;4994095;28;20026;-85
2021/11/02 01:05:45;;;;;;;4.55;2.45;;;;;;;;;;4993058;28;20035;-85
2021/11/02 01:08:11;;;;;;;4.90;2.58;;;;;;;;;;4972249;28;20030;-85
2021/11/02 01:10:37;;;;;;;3.95;2.47;;;;;;;;;;4976893;28;20034;-84
2021/11/02 01:13:03;;;;;;;5.93;2.40;;;;;;;;;;4993474;28;20039;-85
2021/11/02 01:15:30;;;;;;;4.80;2.28;;;;;;;;;;4995585;28;20494;-85
2021/11/02 01:17:56;;;;;;;3.45;2.05;;;;;;;;;;4973832;28;20398;-85
2021/11/02 01:20:23;;;;;;;4.10;2.50;;;;;;;;;;4990600;28;20109;-85
2021/11/02 01:22:49;;;;;;;4.22;2.40;;;;;;;;;;4978850;28;20037;-85
2021/11/02 01:25:16;;;;;;;7.32;2.15;;;;;;;;;;4994174;28;20027;-85
2021/11/02 01:27:42;;;;;;;3.45;2.10;;;;;;;;;;4992258;28;20054;-85
2021/11/02 01:30:09;;;;;;;10.27;3.28;;;;;;;;;;4991436;28;20096;-85
2021/11/02 01:32:35;;;;;;;7.32;2.50;;;;;;;;;;4974438;28;20125;-85
2021/11/02 01:35:01;;;;;;;6.32;2.30;;;;;;;;;;4988056;28;20026;-85
2021/11/02 01:37:30;;;;;;;4.15;2.35;;;;;;;;;;4976552;28;20031;-85
2021/11/02 01:39:56;;;;;;;5.00;2.15;;;;;;;;;;4977942;28;20061;-84
2021/11/02 01:42:25;;;;;;;4.63;1.92;;;;;;;;;;4989545;28;20435;-84
2021/11/02 01:44:53;;;;;;;6.95;2.75;;;;;;;;;;4976553;28;20058;-84
2021/11/02 01:47:19;;;;;;;4.18;2.63;;;;;;;;;;4980702;28;20062;-84
2021/11/02 01:49:45;;;;;;;5.63;2.30;;;;;;;;;;4986073;28;20035;-84
2021/11/02 01:52:11;;;;;;;4.82;2.20;;;;;;;;;;4987625;28;20093;-84
2021/11/02 01:54:38;;;;;;;6.65;2.45;;;;;;;;;;4978973;28;20061;-84
2021/11/02 01:57:04;;;;;;;3.72;2.10;;;;;;;;;;4995641;28;20450;-84
2021/11/02 01:59:33;;;;;;;6.82;2.47;;;;;;;;;;4989536;28;20439;-85
2021/11/02 02:02:07;;;;;;;4.85;2.45;;;;;;;;;;4969535;28;20030;-85
2021/11/02 02:04:33;;;;;;;5.25;2.25;;;;;;;;;;4976681;28;20174;-85
2021/11/02 02:07:14;;;;;;;5.15;2.20;;;;;;;;;;4989902;28;20038;-85
2021/11/02 02:09:44;;;;;;;3.92;2.40;;;;;;;;;;4992242;28;20044;-85
2021/11/02 02:12:13;;;;;;;5.45;2.17;;;;;;;;;;4988266;28;20523;-84
2021/11/02 02:14:39;;;;;;;4.25;2.33;;;;;;;;;;4987312;28;20328;-85
2021/11/02 02:17:09;;;;;;;4.93;2.13;;;;;;;;;;4985741;28;20022;-84
2021/11/02 02:19:43;;;;;;;3.80;2.17;;;;;;;;;;4992023;28;20050;-84
2021/11/02 02:22:09;;;;;;;4.95;2.40;;;;;;;;;;4991479;28;20034;-84
2021/11/02 02:24:35;;;;;;;5.38;2.67;;;;;;;;;;4986767;28;20449;-85
2021/11/02 02:27:20;;;;;;;5.50;2.90;;;;;;;;;;4964265;28;20522;-85
2021/11/02 02:29:47;;;;;;;6.53;2.63;;;;;;;;;;4990411;28;20470;-84
2021/11/02 02:32:16;;;;;;;9.02;3.22;;;;;;;;;;4989222;28;20034;-84
2021/11/02 02:34:45;;;;;;;5.57;2.60;;;;;;;;;;4981854;28;20026;-85
2021/11/02 02:37:12;;;;;;;4.13;2.50;;;;;;;;;;4989367;28;20618;-85
2021/11/02 02:39:39;;;;;;;5.35;2.75;;;;;;;;;;4979928;28;20019;-84
2021/11/02 02:42:06;;;;;;;4.70;2.33;;;;;;;;;;4990664;28;20041;-84
2021/11/02 02:44:33;;;;;;;5.82;2.85;;;;;;;;;;4987115;28;20537;-84
2021/11/02 02:47:03;;;;;;;4.80;2.65;;;;;;;;;;4983693;28;20489;-85
2021/11/02 02:49:29;;;;;;;6.50;2.55;;;;;;;;;;4988916;28;20415;-85
2021/11/02 02:51:56;;;;;;;6.82;2.95;;;;;;;;;;4988670;28;20077;-84
2021/11/02 02:54:22;;;;;;;6.03;3.20;;;;;;;;;;4986786;28;20042;-85
2021/11/02 02:56:49;;;;;;;9.60;2.90;;;;;;;;;;4991658;28;20114;-85
2021/11/02 02:59:15;;;;;;;7.35;2.90;;;;;;;;;;4992516;28;20068;-85
2021/11/02 03:01:42;;;;;;;4.65;2.97;;;;;;;;;;4988076;28;20042;-85
2021/11/02 03:04:14;;;;;;;6.15;2.67;;;;;;;;;;4991569;28;20137;-85
2021/11/02 03:06:42;;;;;;;5.18;3.30;;;;;;;;;;4988968;28;20022;-85
2021/11/02 03:09:09;;;;;;;7.97;3.35;;;;;;;;;;4981770;28;20033;-85
2021/11/02 03:11:36;;;;;;;4.78;2.80;;;;;;;;;;4987495;28;20475;-85
2021/11/02 03:14:09;;;;;;;5.72;3.88;;;;;;;;;;4990568;28;20034;-85
2021/11/02 03:16:53;;;;;;;;;;;;;;;;;;4988808;28;20030;-85
2021/11/02 03:20:15;;;;;;;8.32;3.33;;;;;;;;;;4989087;28;19906;-85
2021/11/02 04:01:30;;;;;;;5.80;3.33;;;;;;;;;;4988564;28;20037;-84
2021/11/02 04:28:53;;;;;;;9.38;3.85;;;;;;;;;;4989340;28;20066;-84
2021/11/02 04:34:40;;;;;;;9.30;3.97;;;;;;;;;;4980972;28;20038;-84
2021/11/02 05:07:22;;;;;;;11.25;4.97;;;;;;;;;;4987829;28;20034;-86
2021/11/02 06:04:00;;;;;;;9.35;4.85;;;;;;;;;;4989292;28;20035;-86
2021/11/02 06:09:51;;;;;;;10.13;5.32;;;;;;;;;;4954211;28;20055;-82
2021/11/02 06:29:18;;;;;;;17.50;7.53;;;;;;;;;;4988452;28;19936;-83
2021/11/02 06:31:54;;;;;;;11.23;5.95;;;;;;;;;;4983123;28;20482;-83
2021/11/02 06:34:26;;;;;;;14.60;6.40;;;;;;;;;;4987980;28;20030;-83
2021/11/02 06:37:24;;;;;;;13.05;6.70;;;;;;;;;;4980975;28;20056;-83
2021/11/02 06:45:27;;;;;;;16.05;8.48;;;;;;;;;;4978962;28;20038;-83
2021/11/02 07:15:50;;;;;;;22.05;9.73;;;;;;;;;;4981005;28;20037;-84
2021/11/02 07:18:20;;;;;;;21.90;9.73;;;;;;;;;;4987412;28;20057;-84
2021/11/02 07:21:35;;;;;;;24.92;9.70;;;;;;;;;;4981387;28;20069;-84
2021/11/02 07:23:52;;;;;;;21.75;10.13;;;;;;;;;;4985422;28;20106;-84
2021/11/02 08:46:50;;;;;;;11.27;5.75;;;;;;;;;;4980900;28;20045;-83
2021/11/02 08:49:16;;;;;;;11.38;5.88;;;;;;;;;;4992225;28;20494;-84
2021/11/02 08:51:42;;;;;;;8.30;5.15;;;;;;;;;;4981478;28;20030;-83
2021/11/02 08:54:08;;;;;;;12.07;5.70;;;;;;;;;;4996745;28;20045;-83
2021/11/02 08:56:35;;;;;;;11.60;5.93;;;;;;;;;;4977739;28;20027;-83
2021/11/02 08:59:01;;;;;;;12.80;5.88;;;;;;;;;;4995520;28;20398;-84
2021/11/02 09:01:27;;;;;;;12.63;6.53;;;;;;;;;;4980980;28;20022;-83
2021/11/02 09:04:00;;;;;;;10.15;5.90;;;;;;;;;;4980591;28;20037;-84
2021/11/02 09:06:27;;;;;;;10.43;5.90;;;;;;;;;;4979793;28;20041;-83
2021/11/02 09:08:55;;;;;;;11.43;5.53;;;;;;;;;;4999968;28;20030;-83
2021/11/02 09:11:22;;;;;;;10.57;5.97;;;;;;;;;;4980594;28;20193;-84
2021/11/02 09:13:49;;;;;;;9.82;5.53;;;;;;;;;;4995971;28;20014;-84
2021/11/02 09:16:17;;;;;;;10.13;5.18;;;;;;;;;;4978906;28;20390;-84
2021/11/02 09:18:43;;;;;;;14.05;6.80;;;;;;;;;;4983703;28;20054;-84
2021/11/02 09:21:10;;;;;;;10.32;5.70;;;;;;;;;;4979436;28;20466;-84
2021/11/02 09:23:36;;;;;;;15.30;6.45;;;;;;;;;;4992809;28;20494;-84
2021/11/02 09:26:03;;;;;;;9.35;5.53;;;;;;;;;;4989734;28;20053;-84
2021/11/02 09:28:30;;;;;;;10.75;5.93;;;;;;;;;;4977099;28;20034;-84
2021/11/02 09:30:57;;;;;;;14.30;5.78;;;;;;;;;;4978029;28;20030;-84
2021/11/02 09:33:23;;;;;;;10.00;6.50;;;;;;;;;;4981918;28;20029;-84
2021/11/02 09:36:01;;;;;;;9.55;6.03;;;;;;;;;;4978056;28;20031;-84
2021/11/02 09:38:28;;;;;;;8.63;5.80;;;;;;;;;;4992955;28;20055;-84
2021/11/02 09:41:00;;;;;;;14.82;6.43;;;;;;;;;;4977715;28;20128;-84
2021/11/02 09:43:45;;;;;;;12.45;6.05;;;;;;;;;;4986063;28;20539;-84
2021/11/02 09:46:30;;;;;;;11.70;5.70;;;;;;;;;;4991080;28;20495;-83
2021/11/02 09:49:13;;;;;;;9.32;5.43;;;;;;;;;;4986407;28;20118;-83
2021/11/02 09:51:42;;;;;;;10.63;5.47;;;;;;;;;;4976927;28;20045;-84
2021/11/02 09:54:18;;;;;;;8.25;4.88;;;;;;;;;;4995693;28;20513;-84
2021/11/02 09:56:49;;;;;;;10.85;5.18;;;;;;;;;;4977949;28;20552;-83
2021/11/02 09:59:46;;;;;;;9.88;5.70;;;;;;;;;;4998879;28;20494;-84
2021/11/02 10:02:35;;;;;;;9.93;5.85;;;;;;;;;;4984530;28;20061;-83
2021/11/02 10:05:15;;;;;;;11.45;5.65;;;;;;;;;;4987350;28;20026;-84
2021/11/02 10:08:16;;;;;;;12.20;5.55;;;;;;;;;;4983927;28;20117;-84
2021/11/02 10:10:43;;;;;;;9.95;5.05;;;;;;;;;;4956013;28;20170;-84
2021/11/02 10:13:23;;;;;;;10.40;5.20;;;;;;;;;;4982884;28;20079;-84
2021/11/02 10:15:54;;;;;;;9.68;5.00;;;;;;;;;;4976225;28;20042;-84
2021/11/02 10:18:44;;;;;;;8.35;5.00;;;;;;;;;;4995120;28;20030;-84
2021/11/02 10:21:14;;;;;;;6.82;3.88;;;;;;;;;;4984630;28;20434;-84
2021/11/02 10:23:58;;;;;;;9.65;5.18;;;;;;;;;;4986285;28;20030;-84
2021/11/02 10:26:35;;;;;;;7.50;4.20;;;;;;;;;;4976452;28;20051;-84
2021/11/02 10:29:23;;;;;;;9.95;4.57;;;;;;;;;;4992557;28;20502;-84
2021/11/02 10:31:56;;;;;;;8.45;5.22;;;;;;;;;;4991728;28;20117;-84
2021/11/02 10:34:48;;;;;;;6.95;4.40;;;;;;;;;;4975620;28;20038;-84
2021/11/02 10:37:17;;;;;;;8.30;4.30;;;;;;;;;;4968287;28;20062;-84
2021/11/02 10:40:03;;;;;;;12.65;4.07;;;;;;;;;;4980197;28;20026;-84
2021/11/02 10:42:42;;;;;;;7.40;3.72;;;;;;;;;;4991562;28;20508;-84
2021/11/02 10:45:10;;;;;;;6.28;3.60;;;;;;;;;;4967247;28;20038;-84
2021/11/02 10:47:50;;;;;;;8.10;3.78;;;;;;;;;;4992566;28;20118;-84
2021/11/02 10:50:17;;;;;;;7.07;3.88;;;;;;;;;;4992211;28;20523;-84
2021/11/02 10:52:47;;;;;;;6.95;3.13;;;;;;;;;;4987523;28;20125;-84
2021/11/02 10:55:19;;;;;;;4.25;3.22;;;;;;;;;;4989102;28;20075;-84
2021/11/02 10:58:03;;;;;;;6.88;3.75;;;;;;;;;;4987789;28;20035;-84
2021/11/02 11:00:32;;;;;;;7.28;3.03;;;;;;;;;;4983602;28;20569;-84
2021/11/02 11:02:59;;;;;;;7.43;3.35;;;;;;;;;;4987338;28;20359;-84
2021/11/02 11:05:28;;;;;;;4.53;3.03;;;;;;;;;;4988744;28;20037;-84
2021/11/02 11:07:54;;;;;;;5.80;3.00;;;;;;;;;;4972928;28;20371;-84
2021/11/02 11:10:23;;;;;;;4.30;3.10;;;;;;;;;;4975959;28;20069;-84
2021/11/02 11:12:51;;;;;;;7.07;3.65;;;;;;;;;;4996051;28;20034;-84
2021/11/02 11:15:17;;;;;;;6.97;3.20;;;;;;;;;;4958705;28;20030;-84
2021/11/02 11:17:50;;;;;;;9.52;3.92;;;;;;;;;;4979714;28;20023;-84
2021/11/02 11:20:16;;;;;;;5.53;3.15;;;;;;;;;;4992237;28;20057;-84
2021/11/02 11:22:43;;;;;;;6.30;3.72;;;;;;;;;;4976659;28;20169;-84
2021/11/02 11:25:12;;;;;;;8.48;4.35;;;;;;;;;;4977640;28;20087;-84
2021/11/02 11:27:45;;;;;;;6.93;3.78;;;;;;;;;;4949347;28;20047;-84
2021/11/02 11:30:11;;;;;;;4.78;3.30;;;;;;;;;;4967429;28;20529;-84
2021/11/02 11:32:38;;;;;;;8.00;4.85;;;;;;;;;;4966078;28;20042;-84
2021/11/02 11:35:05;;;;;;;9.05;5.00;;;;;;;;;;4954153;28;20047;-84
2021/11/02 11:37:37;;;;;;;8.90;4.85;;;;;;;;;;4953737;28;20256;-85
2021/11/02 11:40:08;;;;;;;6.55;4.68;;;;;;;;;;4959021;28;20121;-84
2021/11/02 11:42:35;;;;;;;8.38;5.10;;;;;;;;;;4953831;28;20038;-84
2021/11/02 11:45:11;;;;;;;7.97;4.25;;;;;;;;;;4953805;28;20106;-84
2021/11/02 11:47:38;;;;;;;6.95;4.00;;;;;;;;;;4956970;28;20115;-84
2021/11/02 11:50:15;;;;;;;5.43;4.00;;;;;;;;;;4951750;28;20499;-84
2021/11/02 11:52:44;;;;;;;5.75;4.18;;;;;;;;;;4967433;28;20067;-84
2021/11/02 11:55:11;;;;;;;5.28;3.40;;;;;;;;;;4953643;28;20028;-84
2021/11/02 11:57:38;;;;;;;6.20;3.47;;;;;;;;;;4952407;28;20026;-84
2021/11/02 12:00:08;;;;;;;6.20;3.97;;;;;;;;;;4952561;28;20121;-84
2021/11/02 12:02:57;;;;;;;7.25;3.25;;;;;;;;;;4954702;28;20122;-84
2021/11/02 12:05:23;;;;;;;5.38;3.67;;;;;;;;;;4938013;28;20039;-84
2021/11/02 12:08:08;;;;;;;5.38;2.53;;;;;;;;;;4958029;28;20055;-84
2021/11/02 12:10:35;;;;;;;4.13;2.67;;;;;;;;;;4965651;28;20027;-84
2021/11/02 12:13:06;;;;;;;5.93;2.47;;;;;;;;;;4955501;28;20135;-85
2021/11/02 12:15:37;;;;;;;3.72;2.05;;;;;;;;;;4952976;28;20387;-85
2021/11/02 12:18:04;;;;;;;4.60;2.70;;;;;;;;;;4952501;28;20114;-85
2021/11/02 12:20:30;;;;;;;5.07;2.03;;;;;;;;;;4953052;28;20031;-85
2021/11/02 12:23:13;;;;;;;2.90;1.52;;;;;;;;;;4961922;28;20562;-85
2021/11/02 12:25:40;;;;;;;2.55;1.70;;;;;;;;;;4959706;28;20027;-85
2021/11/02 12:28:07;;;;;;;1.60;1.38;;;;;;;;;;4951118;28;20043;-85
2021/11/02 12:30:33;;;;;;;3.65;1.50;;;;;;;;;;4959979;28;20055;-83
2021/11/02 12:33:09;;;;;;;4.95;2.03;;;;;;;;;;4950878;28;20028;-83
2021/11/02 12:35:39;;;;;;;4.25;1.42;;;;;;;;;;4953136;28;20479;-83
2021/11/02 12:38:06;;;;;;;3.35;1.77;;;;;;;;;;4952560;28;20027;-83
2021/11/02 12:40:34;;;;;;;4.10;1.52;;;;;;;;;;4961512;28;20071;-82
2021/11/02 12:43:00;;;;;;;3.65;1.90;;;;;;;;;;4956513;28;20384;-84
2021/11/02 12:45:27;;;;;;;2.55;1.85;;;;;;;;;;4952048;28;20027;-84
2021/11/02 12:47:59;;;;;;;5.47;1.98;;;;;;;;;;4955478;28;20395;-84
2021/11/02 12:50:27;;;;;;;3.00;1.75;;;;;;;;;;4946514;28;20368;-84
2021/11/02 12:52:55;;;;;;;6.07;1.75;;;;;;;;;;4956876;28;20031;-84
2021/11/02 12:55:24;;;;;;;4.72;2.22;;;;;;;;;;4958091;28;20122;-84
2021/11/02 12:57:53;;;;;;;6.50;1.80;;;;;;;;;;4952040;28;20110;-84
2021/11/02 13:00:26;;;;;;;4.43;2.03;;;;;;;;;;4955828;28;20028;-84
2021/11/02 13:02:58;;;;;;;3.15;2.25;;;;;;;;;;4952413;28;20122;-84
2021/11/02 13:05:25;;;;;;;6.60;2.08;;;;;;;;;;4960454;28;20027;-84
2021/11/02 13:08:05;;;;;;;3.22;1.55;;;;;;;;;;4951407;28;20067;-84
2021/11/02 13:10:32;;;;;;;4.53;1.88;;;;;;;;;;4970868;28;20028;-84
2021/11/02 13:13:08;;;;;;;2.17;1.70;;;;;;;;;;4961575;28;20036;-84
2021/11/02 13:15:50;;;;;;;4.85;2.15;;;;;;;;;;4961062;28;20126;-84
2021/11/02 13:18:37;;;;;;;2.50;1.40;;;;;;;;;;4949645;28;20024;-84
2021/11/02 13:21:19;;;;;;;3.63;2.00;;;;;;;;;;4952541;28;20036;-84
2021/11/02 13:23:47;;;;;;;7.63;2.35;;;;;;;;;;4954684;28;20058;-84
2021/11/02 13:26:14;;;;;;;6.57;2.25;;;;;;;;;;4955692;28;20121;-84
2021/11/02 13:28:41;;;;;;;2.78;1.60;;;;;;;;;;4986531;28;20121;-84
2021/11/02 13:31:07;;;;;;;3.72;1.40;;;;;;;;;;4981469;28;20026;-84
2021/11/02 13:33:33;;;;;;;3.80;1.50;;;;;;;;;;4990220;28;20379;-84
2021/11/02 13:36:00;;;;;;;3.45;1.80;;;;;;;;;;4980042;28;20485;-84
2021/11/02 13:38:31;;;;;;;7.20;1.50;;;;;;;;;;4979897;28;20534;-84
2021/11/02 13:41:02;;;;;;;6.57;1.70;;;;;;;;;;4987785;28;20015;-84
2021/11/02 13:43:29;;;;;;;3.60;1.55;;;;;;;;;;4976247;28;20056;-84
2021/11/02 13:45:55;;;;;;;5.32;1.25;;;;;;;;;;4976431;28;20108;-84
2021/11/02 13:48:22;;;;;;;2.88;1.15;;;;;;;;;;4978055;28;20268;-85
2021/11/02 13:50:48;;;;;;;3.97;1.30;;;;;;;;;;4980278;28;20517;-84
2021/11/02 13:53:14;;;;;;;4.50;1.40;;;;;;;;;;4991773;28;20037;-85
2021/11/02 13:55:40;;;;;;;2.80;1.35;;;;;;;;;;4996094;28;20074;-84
2021/11/02 13:58:06;;;;;;;3.35;1.30;;;;;;;;;;4985729;28;20387;-83
2021/11/02 14:00:32;;;;;;;2.50;1.25;;;;;;;;;;4972471;28;20034;-84
2021/11/02 14:03:05;;;;;;;7.78;1.23;;;;;;;;;;4987368;28;20026;-84
2021/11/02 14:05:32;;;;;;;5.57;1.50;;;;;;;;;;4989926;28;20129;-84
2021/11/02 14:07:58;;;;;;;3.03;1.25;;;;;;;;;;4990403;28;20030;-83
2021/11/02 14:10:31;;;;;;;2.55;1.65;;;;;;;;;;4980990;28;20077;-84
2021/11/02 14:12:57;;;;;;;2.88;1.35;;;;;;;;;;4976480;28;20438;-84
2021/11/02 14:15:24;;;;;;;3.33;1.20;;;;;;;;;;4989766;28;20019;-83
2021/11/02 14:17:53;;;;;;;3.22;1.10;;;;;;;;;;4992940;28;20117;-83
2021/11/02 14:20:38;;;;;;;3.65;1.13;;;;;;;;;;4986454;28;20444;-83
2021/11/02 14:23:06;;;;;;;1.73;1.15;;;;;;;;;;4990707;28;20569;-83
2021/11/02 14:25:39;;;;;;;2.45;0.93;;;;;;;;;;4997523;28;20093;-83
2021/11/02 14:28:09;;;;;;;4.47;1.25;;;;;;;;;;4976252;28;20050;-83
2021/11/02 14:30:35;;;;;;;5.00;1.42;;;;;;;;;;4979341;28;20118;-83
2021/11/02 14:33:02;;;;;;;4.20;1.40;;;;;;;;;;4963962;28;20030;-83
2021/11/02 14:35:48;;;;;;;2.90;1.08;;;;;;;;;;4974802;28;20030;-83
2021/11/02 14:38:14;;;;;;;3.40;1.60;;;;;;;;;;4981074;28;20385;-83
2021/11/02 14:40:41;;;;;;;2.75;1.27;;;;;;;;;;4983014;28;20027;-83
2021/11/02 14:43:17;;;;;;;1.65;1.10;;;;;;;;;;4993414;28;20088;-83
2021/11/02 14:45:50;;;;;;;1.77;1.30;;;;;;;;;;4986404;28;20023;-83
2021/11/02 14:48:28;;;;;;;4.18;1.50;;;;;;;;;;4975246;28;20026;-84
2021/11/02 14:50:54;;;;;;;6.47;1.58;;;;;;;;;;4991695;28;20425;-83
2021/11/02 14:53:34;;;;;;;4.68;1.77;;;;;;;;;;4991926;28;20471;-83
2021/11/02 14:56:00;;;;;;;7.00;1.65;;;;;;;;;;4964742;28;20024;-83
2021/11/02 14:58:45;;;;;;;3.17;1.02;;;;;;;;;;4993968;28;20023;-83
2021/11/02 15:01:19;;;;;;;5.18;1.55;;;;;;;;;;4986540;28;20382;-83
2021/11/02 15:03:52;;;;;;;1.88;1.17;;;;;;;;;;4998342;28;20031;-84
2021/11/02 15:06:19;;;;;;;2.85;1.27;;;;;;;;;;4995336;28;20030;-84
2021/11/02 15:08:46;;;;;;;3.30;1.60;;;;;;;;;;4991724;28;20026;-84
2021/11/02 15:11:17;;;;;;;4.13;1.83;;;;;;;;;;4975866;28;20022;-84
2021/11/02 15:13:47;;;;;;;5.63;1.33;;;;;;;;;;4972714;28;20030;-83
2021/11/02 15:16:13;;;;;;;2.75;1.58;;;;;;;;;;4987870;28;20019;-84
2021/11/02 15:18:50;;;;;;;1.70;1.35;;;;;;;;;;4991806;28;20026;-83
2021/11/02 15:21:21;;;;;;;3.85;1.38;;;;;;;;;;4987261;28;20022;-83
2021/11/02 15:23:48;;;;;;;3.00;1.50;;;;;;;;;;4973536;28;20026;-83
2021/11/02 15:26:15;;;;;;;3.22;1.95;;;;;;;;;;4973613;28;20121;-83
2021/11/02 15:28:42;;;;;;;2.80;1.50;;;;;;;;;;4990474;28;20124;-83
2021/11/02 15:31:08;;;;;;;4.70;2.00;;;;;;;;;;4990767;28;20026;-83
2021/11/02 15:33:34;;;;;;;2.83;1.70;;;;;;;;;;4979613;28;20080;-83
2021/11/02 15:36:14;;;;;;;3.25;1.85;;;;;;;;;;4970817;28;20113;-83
2021/11/02 15:38:41;;;;;;;3.72;1.55;;;;;;;;;;4981811;28;20014;-83
2021/11/02 15:41:20;;;;;;;3.03;1.70;;;;;;;;;;4989390;28;20028;-83
2021/11/02 15:43:54;;;;;;;2.67;1.30;;;;;;;;;;4972553;28;20053;-79
2021/11/02 15:46:21;;;;;;;5.07;2.53;;;;;;;;;;4979589;28;20115;-79
2021/11/02 15:48:48;;;;;;;4.28;1.25;;;;;;;;;;4968622;28;20053;-79
2021/11/02 15:51:16;;;;;;;5.43;1.55;;;;;;;;;;4983460;28;20035;-79
2021/11/02 15:53:42;;;;;;;2.65;1.52;;;;;;;;;;4986627;28;20486;-83
2021/11/02 15:56:08;;;;;;;4.45;1.60;;;;;;;;;;4980134;28;20360;-83
2021/11/02 15:58:34;;;;;;;4.97;1.73;;;;;;;;;;4978210;28;20128;-82
2021/11/02 16:01:00;;;;;;;5.32;1.63;;;;;;;;;;4972280;28;20537;-82
2021/11/02 16:03:33;;;;;;;3.72;1.90;;;;;;;;;;4990715;28;20494;-82
2021/11/02 16:06:01;;;;;;;3.28;1.30;;;;;;;;;;4975735;28;20027;-83
2021/11/02 16:08:27;;;;;;;4.93;1.83;;;;;;;;;;4981047;28;20053;-83
2021/11/02 16:10:53;;;;;;;5.45;2.00;;;;;;;;;;4980300;28;20469;-82
2021/11/02 16:13:26;;;;;;;3.50;2.10;;;;;;;;;;4987286;28;20114;-82
2021/11/02 16:15:54;;;;;;;3.42;2.00;;;;;;;;;;4983687;28;20061;-82
2021/11/02 16:18:29;;;;;;;4.40;1.80;;;;;;;;;;4990931;28;20513;-81
2021/11/02 16:20:59;;;;;;;8.27;2.00;;;;;;;;;;4974076;28;20033;-82
2021/11/02 16:23:26;;;;;;;4.03;2.03;;;;;;;;;;4990146;28;20133;-83
2021/11/02 16:25:58;;;;;;;3.92;2.30;;;;;;;;;;4979674;28;20038;-83
2021/11/02 16:28:28;;;;;;;4.72;2.10;;;;;;;;;;4987391;28;20042;-83
2021/11/02 16:30:56;;;;;;;5.70;2.13;;;;;;;;;;4990386;28;20042;-83
2021/11/02 16:33:35;;;;;;;4.75;2.00;;;;;;;;;;4990477;28;20034;-83
2021/11/02 16:36:15;;;;;;;3.00;2.00;;;;;;;;;;4990388;28;20034;-82
2021/11/02 16:38:41;;;;;;;3.72;2.05;;;;;;;;;;4981346;28;20584;-82
2021/11/02 16:41:21;;;;;;;3.65;2.20;;;;;;;;;;4982976;28;20125;-82
2021/11/02 16:43:57;;;;;;;5.03;2.35;;;;;;;;;;4981775;28;20461;-82
2021/11/02 16:46:28;;;;;;;2.83;2.13;;;;;;;;;;4982088;28;20058;-82
2021/11/02 16:49:03;;;;;;;1.70;1.50;;;;;;;;;;4981625;28;20785;-82
2021/11/02 16:51:49;;;;;;;3.78;2.00;;;;;;;;;;4988395;28;20019;-82
2021/11/02 16:54:16;;;;;;;2.65;1.92;;;;;;;;;;4992918;28;20023;-83
2021/11/02 16:57:01;;;;;;;2.33;1.80;;;;;;;;;;4989049;28;20101;-81
2021/11/02 16:59:46;;;;;;;2.53;1.80;;;;;;;;;;4991501;28;20027;-83
2021/11/02 17:02:22;;;;;;;2.92;1.95;;;;;;;;;;4988352;28;20031;-82
2021/11/02 17:05:02;;;;;;;2.58;2.05;;;;;;;;;;4991469;28;20023;-82
2021/11/02 17:07:34;;;;;;;7.18;2.75;;;;;;;;;;4988780;28;20077;-82
2021/11/02 17:10:19;;;;;;;2.17;1.65;;;;;;;;;;4987837;28;20105;-83
2021/11/02 17:12:54;;;;;;;3.95;2.10;;;;;;;;;;4985191;28;20168;-83
2021/11/02 17:15:24;;;;;;;7.55;1.92;;;;;;;;;;4987444;28;20019;-83
2021/11/02 17:17:52;;;;;;;2.80;1.95;;;;;;;;;;4997270;28;20049;-83
2021/11/02 17:20:18;;;;;;;4.22;1.80;;;;;;;;;;4988415;28;20042;-82
2021/11/02 17:22:46;;;;;;;4.63;2.05;;;;;;;;;;4987000;28;20101;-83
2021/11/02 17:25:14;;;;;;;4.28;2.08;;;;;;;;;;4982539;28;20049;-85
2021/11/02 17:27:40;;;;;;;2.78;2.05;;;;;;;;;;4975237;28;20043;-83
2021/11/02 17:30:07;;;;;;;4.90;2.30;;;;;;;;;;4975851;28;20753;-82
2021/11/02 17:32:33;;;;;;;3.88;2.85;;;;;;;;;;4975708;28;20031;-83
2021/11/02 17:34:59;;;;;;;3.78;2.30;;;;;;;;;;4989027;28;20026;-83
2021/11/02 17:37:26;;;;;;;5.90;2.17;;;;;;;;;;4994305;28;20022;-84
2021/11/02 17:39:53;;;;;;;7.43;2.80;;;;;;;;;;4996185;28;20038;-83
2021/11/02 17:42:19;;;;;;;2.03;1.80;;;;;;;;;;4995601;28;20022;-83
2021/11/02 17:44:45;;;;;;;3.85;2.35;;;;;;;;;;4978843;28;20383;-83
2021/11/02 17:47:13;;;;;;;4.63;2.67;;;;;;;;;;4978451;28;20030;-83
2021/11/02 17:49:40;;;;;;;4.43;2.03;;;;;;;;;;4979213;28;20053;-84
2021/11/02 17:52:06;;;;;;;4.82;2.58;;;;;;;;;;4985455;28;20478;-84
2021/11/02 17:54:32;;;;;;;4.03;2.28;;;;;;;;;;4996140;28;20038;-84
2021/11/02 17:56:58;;;;;;;3.78;2.13;;;;;;;;;;4994934;28;20027;-83
2021/11/02 17:59:24;;;;;;;4.25;2.60;;;;;;;;;;4995382;28;20029;-84
2021/11/02 18:01:52;;;;;;;5.10;2.17;;;;;;;;;;4978532;28;20038;-83
2021/11/02 18:04:19;;;;;;;5.22;2.55;;;;;;;;;;4995525;28;20089;-82
2021/11/02 18:06:45;;;;;;;4.10;2.35;;;;;;;;;;4978708;28;20121;-84
2021/11/02 18:09:13;;;;;;;7.07;2.67;;;;;;;;;;4990114;28;20173;-82
2021/11/02 18:11:39;;;;;;;3.13;1.95;;;;;;;;;;4992117;28;20452;-82
2021/11/02 18:14:05;;;;;;;4.18;2.80;;;;;;;;;;4977516;28;20105;-83
2021/11/02 18:16:32;;;;;;;7.05;2.83;;;;;;;;;;4981907;28;20056;-83
2021/11/02 18:19:00;;;;;;;5.88;2.95;;;;;;;;;;4976101;28;20022;-83
2021/11/02 18:21:27;;;;;;;4.72;2.67;;;;;;;;;;4989189;28;20031;-83
2021/11/02 18:23:56;;;;;;;8.48;3.95;;;;;;;;;;4996372;28;20447;-82
2021/11/02 18:26:23;;;;;;;5.07;3.58;;;;;;;;;;4996612;28;20125;-83
2021/11/02 18:28:50;;;;;;;5.85;3.25;;;;;;;;;;4997681;28;20033;-83
2021/11/02 18:31:17;;;;;;;5.68;2.63;;;;;;;;;;4992177;28;20061;-83
2021/11/02 18:33:43;;;;;;;5.05;3.35;;;;;;;;;;4989486;28;20022;-83
2021/11/02 18:36:10;;;;;;;5.90;3.10;;;;;;;;;;4977125;28;20097;-83
2021/11/02 18:38:36;;;;;;;5.28;3.28;;;;;;;;;;4994236;28;20033;-83
2021/11/02 18:41:03;;;;;;;5.38;3.25;;;;;;;;;;4979603;28;20391;-83
2021/11/02 18:43:36;;;;;;;8.45;3.30;;;;;;;;;;4990617;28;20030;-82
2021/11/02 18:46:03;;;;;;;5.70;3.47;;;;;;;;;;4975453;28;20121;-83
2021/11/02 18:48:29;;;;;;;4.53;2.90;;;;;;;;;;4992203;28;20026;-84
2021/11/02 18:50:56;;;;;;;5.13;3.45;;;;;;;;;;4973649;28;20089;-84
2021/11/02 18:53:23;;;;;;;7.28;3.85;;;;;;;;;;4982069;28;20030;-85
2021/11/02 18:55:50;;;;;;;4.45;3.33;;;;;;;;;;4975812;28;20109;-84
2021/11/02 18:58:16;;;;;;;5.93;2.97;;;;;;;;;;4989305;28;20023;-84
2021/11/02 19:00:42;;;;;;;6.25;3.42;;;;;;;;;;4973549;28;20142;-83
2021/11/02 19:03:12;;;;;;;5.50;3.05;;;;;;;;;;4980839;28;20026;-83
2021/11/02 19:05:40;;;;;;;5.32;3.30;;;;;;;;;;4990852;28;20088;-82
2021/11/02 19:08:07;;;;;;;6.57;3.60;;;;;;;;;;4974456;28;20037;-83
2021/11/02 19:10:33;;;;;;;7.78;4.05;;;;;;;;;;4988509;28;20038;-83
2021/11/02 19:12:59;;;;;;;7.55;3.78;;;;;;;;;;4984280;28;20042;-83
2021/11/02 19:15:25;;;;;;;4.63;3.45;;;;;;;;;;4988298;28;20031;-82
2021/11/02 19:17:51;;;;;;;5.28;3.95;;;;;;;;;;4988591;28;20033;-83
2021/11/02 19:20:18;;;;;;;9.15;4.53;;;;;;;;;;4990296;28;20095;-83
2021/11/02 19:22:44;;;;;;;5.68;4.28;;;;;;;;;;4991126;28;20124;-83
2021/11/02 19:25:11;;;;;;;10.55;4.70;;;;;;;;;;4974172;28;20096;-83
2021/11/02 19:27:37;;;;;;;10.93;5.43;;;;;;;;;;4981706;28;20185;-83
2021/11/02 19:30:04;;;;;;;9.40;6.20;;;;;;;;;;4976755;28;20112;-83
2021/11/02 19:32:31;;;;;;;10.48;5.28;;;;;;;;;;4979861;28;20026;-84
2021/11/02 19:34:57;;;;;;;5.93;3.78;;;;;;;;;;4989244;28;20023;-84
2021/11/02 19:37:24;;;;;;;9.02;4.43;;;;;;;;;;4971175;28;20085;-84
2021/11/02 19:39:50;;;;;;;8.18;3.88;;;;;;;;;;4987433;28;20391;-84
2021/11/02 19:42:16;;;;;;;6.75;3.90;;;;;;;;;;4967877;28;20084;-83
2021/11/02 19:44:42;;;;;;;8.32;3.60;;;;;;;;;;4986197;28;20030;-84